Shawnee Mission, KS (66212)

11:51 PM CDT on August 23, 2016 (GMT -0500)
Heritage Farms | | Change Station

Elev 981 ft 38.96 °N, 94.69 °W | Updated 18 seconds ago

Clear
Clear
78.8 °F
Feels Like 82 °F
N
3.6
Wind Variable Wind from SE
Gusts 7.4 mph

Today
High -- | Low -- °F
--% Chance of Precip.
Yesterday
High -- | Low -- °F
Precip. -- in
Pressure 29.93 in
Visibility 10.0 miles
Clouds Clear
Heat Index 82 °F
Dew Point 71 °F
Humidity 76%
Rainfall 0.00 in
Snow Depth Not available.
6:39 AM 8:01 PM
Waning Gibbous, 61% visible
METAR KOJC 240353Z AUTO 17014KT 10SM CLR 25/21 A2996 RMK AO2 SLP134 T02500211
Pressure 29.93 in
Visibility 10.0 miles
Clouds Clear
Heat Index 82 °F
Dew Point 71 °F
Humidity 76%
Rainfall 0.00 in
Snow Depth Not available.
6:39 AM 8:01 PM
Waning Gibbous, 61% visible
METAR KOJC 240353Z AUTO 17014KT 10SM CLR 25/21 A2996 RMK AO2 SLP134 T02500211

10-Day Weather Forecast

Almanac

Astronomy

Aug. 23, 2016 Rise Set
Actual Time
Civil Twilight
Nautical Twilight
Astronomical Twilight
Moon
Length of Visible Light
Length of Day
Tomorrow will be .
, % of the Moon is Illuminated

Today's Extremes

State Highs State Lows

Community

WunderPhotos

Upload Photos

1,934,554 photos uploaded!

WunderBlog® & News

Nearby

Air Quality

  Air Quality AQ Index Pollutant
Not available.

Snow Depth

Station Depth Elevation

Earthquake Activity

City Distance Mag. Time & Date
Minimum magnitude displayed is 2.5.

Coastal Water Temperatures

Place Temperature

Stations

Nearby Weather Stations

Station Location Temp. Windchill Dew Point Humidity Wind Precip. Elev Updated Type
                   

Watches & Warnings

There are currently no watches in effect.